Time;durP1;ratioP1;P1;durP2;ratioP2;P2;SDS_P1;SDS_P2;PMS_P1;PMS_P2;Temp;Humidity;BMP_temperature;BMP_pressure;BME280_temperature;BME280_humidity;BME280_pressure;Samples;Min_cycle;Max_cycle;Signal;HPM_P1;HPM_P2
2022/05/10 00:00:39;;;;;;;12.80;7.07;;;18.00;97.50;;;;;;5052658;28;20043;-71
2022/05/10 00:03:07;;;;;;;10.95;6.90;;;18.00;97.50;;;;;;5053103;28;20107;-69
2022/05/10 00:05:37;;;;;;;11.75;6.25;;;18.00;97.60;;;;;;5052496;28;20394;-70
2022/05/10 00:08:07;;;;;;;12.20;6.57;;;18.00;97.70;;;;;;5052585;28;20025;-70
2022/05/10 00:10:33;;;;;;;14.75;6.43;;;18.00;97.60;;;;;;5051326;28;20492;-70
2022/05/10 00:12:59;;;;;;;13.98;6.63;;;18.00;97.40;;;;;;5052521;28;20141;-69
2022/05/10 00:15:25;;;;;;;14.48;6.72;;;18.00;97.40;;;;;;5052380;28;20096;-70
2022/05/10 00:17:51;;;;;;;10.20;6.28;;;18.00;97.50;;;;;;5051128;28;20029;-71
2022/05/10 00:20:23;;;;;;;11.65;6.30;;;18.00;97.40;;;;;;5054577;28;20075;-70
2022/05/10 00:22:49;;;;;;;14.85;6.82;;;18.00;97.50;;;;;;5056439;28;20178;-71
2022/05/10 00:25:18;;;;;;;13.35;6.78;;;18.00;97.50;;;;;;5056117;28;20028;-69
2022/05/10 00:27:44;;;;;;;14.88;7.53;;;17.90;97.60;;;;;;5056614;28;20051;-68
2022/05/10 00:30:10;;;;;;;10.77;6.65;;;17.90;97.50;;;;;;5056611;28;20017;-68
2022/05/10 00:32:38;;;;;;;11.48;6.88;;;17.90;97.40;;;;;;5056308;28;20028;-69
2022/05/10 00:35:10;;;;;;;12.27;6.05;;;17.90;97.40;;;;;;5056112;28;20458;-69
2022/05/10 00:37:36;;;;;;;11.85;6.40;;;17.90;97.40;;;;;;5056045;28;20501;-68
2022/05/10 00:40:03;;;;;;;10.95;6.15;;;17.90;97.40;;;;;;5056133;28;20067;-69
2022/05/10 00:42:38;;;;;;;11.38;5.95;;;17.90;97.40;;;;;;5055993;28;20037;-70
2022/05/10 00:45:09;;;;;;;9.55;5.63;;;17.90;97.30;;;;;;5055692;28;20036;-69
2022/05/10 00:47:44;;;;;;;8.40;5.45;;;17.90;97.20;;;;;;5055948;28;20060;-69
2022/05/10 00:50:48;;;;;;;11.63;5.55;;;17.90;97.20;;;;;;5054444;28;20486;-70
2022/05/10 00:53:54;;;;;;;9.65;5.18;;;17.90;96.90;;;;;;5053525;28;20192;-70
2022/05/10 00:56:46;;;;;;;11.40;5.22;;;17.80;96.50;;;;;;5053039;28;20029;-69
2022/05/10 00:59:32;;;;;;;11.18;5.55;;;17.80;96.70;;;;;;5055644;28;20474;-69
2022/05/10 01:02:11;;;;;;;9.85;5.90;;;17.80;96.50;;;;;;5054867;28;20063;-70
2022/05/10 01:04:46;;;;;;;14.70;6.32;;;17.80;96.50;;;;;;5055468;28;20024;-69
2022/05/10 01:07:22;;;;;;;9.30;5.55;;;17.80;96.60;;;;;;5055394;28;20423;-68
2022/05/10 01:09:58;;;;;;;8.50;5.78;;;17.80;96.70;;;;;;5055376;28;20105;-69
2022/05/10 01:12:38;;;;;;;9.45;5.35;;;17.70;96.60;;;;;;5055689;28;20505;-70
2022/05/10 01:15:31;;;;;;;12.25;6.47;;;17.70;96.50;;;;;;5055252;28;20062;-70
2022/05/10 01:17:58;;;;;;;8.13;5.75;;;17.70;96.60;;;;;;5055089;28;20045;-69
2022/05/10 01:20:30;;;;;;;13.45;6.00;;;17.60;96.90;;;;;;5053983;28;20048;-70
2022/05/10 01:23:08;;;;;;;12.27;5.70;;;17.60;97.00;;;;;;5055209;28;20561;-69
2022/05/10 01:26:01;;;;;;;11.48;6.40;;;17.60;97.10;;;;;;5055431;28;20032;-69
2022/05/10 01:28:32;;;;;;;13.55;6.72;;;17.50;97.00;;;;;;5053920;28;20401;-70
2022/05/10 01:31:04;;;;;;;9.60;6.22;;;17.50;97.10;;;;;;5058458;28;20107;-69
2022/05/10 01:33:40;;;;;;;12.83;5.80;;;17.50;97.20;;;;;;5061688;28;20421;-68
2022/05/10 01:36:20;;;;;;;10.85;6.20;;;17.50;97.20;;;;;;5055504;28;20025;-69
2022/05/10 01:39:05;;;;;;;12.20;6.30;;;17.50;97.50;;;;;;5054569;28;20506;-69
2022/05/10 01:41:46;;;;;;;10.65;5.90;;;17.40;97.50;;;;;;5054765;28;20040;-69
2022/05/10 01:44:30;;;;;;;12.38;6.82;;;17.40;97.70;;;;;;5054641;28;20100;-71
2022/05/10 01:47:08;;;;;;;12.52;6.00;;;17.40;97.70;;;;;;5054636;28;20378;-68
2022/05/10 01:49:47;;;;;;;9.38;5.57;;;17.30;97.70;;;;;;5054752;28;20021;-69
2022/05/10 01:52:13;;;;;;;11.43;6.32;;;17.30;97.70;;;;;;5054660;28;20025;-71
2022/05/10 01:54:44;;;;;;;13.13;6.60;;;17.30;97.40;;;;;;5054505;28;20029;-70
2022/05/10 01:57:14;;;;;;;12.77;5.22;;;17.20;97.30;;;;;;5054426;28;20037;-69
2022/05/10 01:59:48;;;;;;;9.82;5.00;;;17.10;97.30;;;;;;5054596;28;20039;-70
2022/05/10 02:02:15;;;;;;;;;;;17.20;97.20;;;;;;5054986;28;20021;-69
2022/05/10 02:04:45;;;;;;;12.43;4.63;;;17.20;97.20;;;;;;5054339;28;19973;-70
2022/05/10 02:07:15;;;;;;;12.48;5.05;;;17.20;96.50;;;;;;5054191;28;20032;-69
2022/05/10 02:10:00;;;;;;;9.25;5.18;;;17.10;96.30;;;;;;5054506;28;20104;-70
2022/05/10 02:12:34;;;;;;;13.63;5.40;;;17.10;96.40;;;;;;5054454;28;20028;-69
2022/05/10 02:15:10;;;;;;;10.90;4.80;;;17.00;96.50;;;;;;5054035;28;20082;-69
2022/05/10 02:18:01;;;;;;;9.77;5.00;;;16.90;96.60;;;;;;5052929;28;20037;-70
2022/05/10 02:20:34;;;;;;;10.13;4.90;;;16.90;96.90;;;;;;5052967;28;20103;-70
2022/05/10 02:23:09;;;;;;;14.32;5.57;;;16.90;96.70;;;;;;5054092;28;20430;-71
2022/05/10 02:25:42;;;;;;;15.95;5.15;;;16.90;96.70;;;;;;5053793;28;20029;-68
2022/05/10 02:28:20;;;;;;;8.43;4.93;;;16.90;96.80;;;;;;5053906;28;20029;-69
2022/05/10 02:30:45;;;;;;;9.00;5.07;;;16.90;96.60;;;;;;5053961;28;20025;-69
2022/05/10 02:33:14;;;;;;;13.73;5.60;;;16.90;96.60;;;;;;5053914;28;20033;-71
2022/05/10 02:35:55;;;;;;;12.57;4.82;;;16.90;96.60;;;;;;5053765;28;20029;-70
2022/05/10 02:38:28;;;;;;;7.68;4.82;;;16.80;96.70;;;;;;5053526;28;20045;-71
2022/05/10 02:40:57;;;;;;;13.00;5.97;;;16.90;96.70;;;;;;5053892;28;20412;-70
2022/05/10 02:43:26;;;;;;;10.13;4.55;;;16.90;96.60;;;;;;5053011;28;20040;-69
2022/05/10 02:45:54;;;;;;;13.02;5.82;;;16.90;96.70;;;;;;5053402;28;20017;-69
2022/05/10 02:48:32;;;;;;;9.77;5.10;;;16.90;96.70;;;;;;5053587;28;20037;-69
2022/05/10 02:50:58;;;;;;;12.68;5.38;;;16.80;96.80;;;;;;5053800;28;20018;-68
2022/05/10 02:53:25;;;;;;;9.60;5.05;;;16.80;97.00;;;;;;5053605;28;20125;-69
2022/05/10 02:55:54;;;;;;;12.18;5.43;;;16.70;97.10;;;;;;5053290;28;20021;-69
2022/05/10 02:58:20;;;;;;;12.05;5.50;;;16.70;97.30;;;;;;5053365;28;20479;-70
2022/05/10 03:00:47;;;;;;;10.18;5.50;;;16.60;97.10;;;;;;5053850;28;20066;-69
2022/05/10 03:03:17;;;;;;;10.15;5.95;;;16.60;97.30;;;;;;5053787;28;20032;-70
2022/05/10 03:05:43;;;;;;;11.68;5.25;;;16.60;97.50;;;;;;5053702;28;20116;-69
2022/05/10 03:08:09;;;;;;;10.95;5.55;;;16.50;97.60;;;;;;5052010;28;20422;-69
2022/05/10 03:10:35;;;;;;;9.88;5.57;;;16.50;97.60;;;;;;5053297;28;20358;-69
2022/05/10 03:13:01;;;;;;;8.13;4.95;;;16.50;97.70;;;;;;5053182;28;20029;-69
2022/05/10 03:15:27;;;;;;;12.52;6.00;;;16.50;97.90;;;;;;5053301;28;20029;-70
2022/05/10 03:17:53;;;;;;;10.82;5.38;;;16.50;97.90;;;;;;5053274;28;20044;-69
2022/05/10 03:20:18;;;;;;;10.25;5.93;;;16.50;98.10;;;;;;5053229;28;20055;-69
2022/05/10 03:22:44;;;;;;;10.68;6.47;;;16.50;98.20;;;;;;5053558;28;20379;-70
2022/05/10 03:25:10;;;;;;;14.50;6.68;;;16.40;98.20;;;;;;5052955;28;20029;-69
2022/05/10 03:27:37;;;;;;;10.32;6.53;;;16.40;98.30;;;;;;5053147;28;20025;-69
2022/05/10 03:30:04;;;;;;;12.13;6.55;;;16.40;98.30;;;;;;5053017;28;20478;-69
2022/05/10 03:32:30;;;;;;;13.88;6.20;;;16.40;98.50;;;;;;5053024;28;20040;-69
2022/05/10 03:34:59;;;;;;;12.20;6.45;;;16.40;98.50;;;;;;5053104;28;20055;-69
2022/05/10 03:37:28;;;;;;;13.27;6.20;;;16.40;98.70;;;;;;5052702;28;20052;-70
2022/05/10 03:39:54;;;;;;;11.88;6.20;;;16.40;98.60;;;;;;5052741;28;20032;-69
2022/05/10 03:42:20;;;;;;;9.75;6.00;;;16.30;98.70;;;;;;5053018;28;20037;-70
2022/05/10 03:44:53;;;;;;;13.20;6.28;;;16.30;98.80;;;;;;5052685;28;20417;-69
2022/05/10 03:47:26;;;;;;;11.33;6.33;;;16.30;99.10;;;;;;5052770;28;20040;-69
2022/05/10 03:49:53;;;;;;;9.85;5.82;;;16.30;98.70;;;;;;5052887;28;20025;-70
2022/05/10 03:52:19;;;;;;;9.60;6.28;;;16.30;98.70;;;;;;5051286;28;20032;-71
2022/05/10 03:54:45;;;;;;;13.73;6.30;;;16.30;98.70;;;;;;5055396;28;20067;-69
2022/05/10 03:57:12;;;;;;;11.73;6.30;;;16.20;98.90;;;;;;5056617;28;20493;-69
2022/05/10 03:59:41;;;;;;;13.15;6.30;;;16.20;99.00;;;;;;5056721;28;20032;-69
2022/05/10 04:02:09;;;;;;;20.33;6.72;;;16.20;99.00;;;;;;5056424;28;20029;-70
2022/05/10 04:04:35;;;;;;;11.27;6.03;;;16.20;99.20;;;;;;5056460;28;20482;-70
2022/05/10 04:07:00;;;;;;;11.15;6.53;;;16.20;99.00;;;;;;5056458;28;20025;-69
2022/05/10 04:09:26;;;;;;;10.90;5.97;;;16.20;99.00;;;;;;5056596;28;20050;-68
2022/05/10 04:11:52;;;;;;;11.43;5.85;;;16.20;99.00;;;;;;5056849;28;20036;-69
2022/05/10 04:14:17;;;;;;;11.98;6.60;;;16.20;98.90;;;;;;5055012;28;20041;-69
2022/05/10 04:16:43;;;;;;;12.40;6.68;;;16.20;98.80;;;;;;5056376;28;20389;-69
2022/05/10 04:19:09;;;;;;;24.48;7.10;;;16.20;98.90;;;;;;5056272;28;20183;-69
2022/05/10 04:21:35;;;;;;;12.15;6.38;;;16.20;98.80;;;;;;5056203;28;20017;-70
2022/05/10 04:24:00;;;;;;;18.15;6.82;;;16.30;98.70;;;;;;5056111;28;20028;-69
2022/05/10 04:26:26;;;;;;;13.05;6.18;;;16.30;98.60;;;;;;5056323;28;20028;-69
2022/05/10 04:28:52;;;;;;;12.18;6.40;;;16.30;98.50;;;;;;5056299;28;20428;-68
2022/05/10 04:31:17;;;;;;;11.80;6.43;;;16.30;98.30;;;;;;5056255;28;20339;-70
2022/05/10 04:33:43;;;;;;;9.93;6.13;;;16.40;98.20;;;;;;5055994;28;20036;-68
2022/05/10 04:36:09;;;;;;;12.25;6.05;;;16.50;97.90;;;;;;5056327;28;20021;-70
2022/05/10 04:38:35;;;;;;;14.70;6.15;;;16.40;97.90;;;;;;5056241;28;20148;-70
2022/05/10 04:43:45;;;;;;;11.63;5.78;;;16.40;97.90;;;;;;5055903;28;20390;-69
2022/05/10 04:46:10;;;;;;;12.55;6.65;;;16.40;98.10;;;;;;5054135;28;20021;-70
2022/05/10 04:48:37;;;;;;;12.88;6.72;;;16.40;97.80;;;;;;5055598;28;20203;-70
2022/05/10 04:51:04;;;;;;;14.38;6.18;;;16.50;97.70;;;;;;5055757;28;20017;-70
2022/05/10 04:53:30;;;;;;;10.50;5.90;;;16.50;97.50;;;;;;5054491;28;20405;-70
2022/05/10 04:55:55;;;;;;;13.88;6.72;;;16.50;97.30;;;;;;5055544;28;20113;-70
2022/05/10 04:58:21;;;;;;;11.57;6.10;;;16.60;97.20;;;;;;5055357;28;20065;-69
2022/05/10 05:00:47;;;;;;;11.38;6.25;;;16.60;96.80;;;;;;5055727;28;20025;-70
2022/05/10 05:03:12;;;;;;;13.30;6.30;;;16.60;96.80;;;;;;5055870;28;20093;-72
2022/05/10 05:05:38;;;;;;;8.98;5.38;;;16.60;96.70;;;;;;5054677;28;20024;-69
2022/05/10 05:08:04;;;;;;;10.05;6.22;;;16.60;96.80;;;;;;5055528;28;20025;-71
2022/05/10 05:10:30;;;;;;;11.55;6.05;;;16.60;96.60;;;;;;5055400;28;20052;-69
2022/05/10 05:12:55;;;;;;;13.68;5.68;;;16.70;96.40;;;;;;5055507;28;20032;-69
2022/05/10 05:15:21;;;;;;;12.23;5.80;;;16.70;96.10;;;;;;5053945;28;20083;-70
2022/05/10 05:17:47;;;;;;;10.70;6.47;;;16.90;96.00;;;;;;5055148;28;20029;-69
2022/05/10 05:20:12;;;;;;;13.10;6.72;;;17.10;95.50;;;;;;5055285;28;20462;-70
2022/05/10 05:22:39;;;;;;;12.50;6.30;;;17.20;94.80;;;;;;5055009;28;20433;-71
2022/05/10 05:25:06;;;;;;;9.85;6.00;;;17.40;94.40;;;;;;5055041;28;20477;-70
2022/05/10 05:27:33;;;;;;;10.90;6.07;;;17.50;93.90;;;;;;5055263;28;20394;-70
2022/05/10 05:29:59;;;;;;;9.35;6.25;;;17.60;93.50;;;;;;5055083;28;20028;-71
2022/05/10 05:32:28;;;;;;;10.18;6.10;;;17.80;92.90;;;;;;5055150;28;20045;-70
2022/05/10 05:34:56;;;;;;;13.13;6.28;;;18.00;92.30;;;;;;5053457;28;20021;-71
2022/05/10 05:37:33;;;;;;;11.98;5.38;;;18.00;92.10;;;;;;5053453;28;20324;-71
2022/05/10 05:40:06;;;;;;;11.05;6.03;;;18.20;91.80;;;;;;5054876;28;20079;-71
2022/05/10 05:42:31;;;;;;;17.75;6.50;;;18.40;91.50;;;;;;5055197;28;20024;-70
2022/05/10 05:44:58;;;;;;;13.10;5.63;;;18.50;90.50;;;;;;5054899;28;20029;-70
2022/05/10 05:47:26;;;;;;;11.57;6.43;;;18.80;90.40;;;;;;5055189;28;20028;-71
2022/05/10 05:49:52;;;;;;;20.08;6.20;;;18.90;90.00;;;;;;5054546;28;20056;-68
2022/05/10 05:52:20;;;;;;;12.40;5.78;;;19.10;88.80;;;;;;5054684;28;20055;-70
2022/05/10 05:54:46;;;;;;;14.70;5.95;;;19.30;87.30;;;;;;5054518;28;20025;-70
2022/05/10 05:57:12;;;;;;;10.27;5.30;;;19.40;86.30;;;;;;5054212;28;20025;-71
2022/05/10 05:59:38;;;;;;;10.95;4.57;;;19.50;85.10;;;;;;5054676;28;20033;-69
2022/05/10 06:02:16;;;;;;;13.48;6.30;;;19.60;83.70;;;;;;5053189;28;20120;-71
2022/05/10 06:04:42;;;;;;;13.07;6.18;;;19.70;83.70;;;;;;5054325;28;20029;-70
2022/05/10 06:07:09;;;;;;;11.73;5.60;;;19.80;82.00;;;;;;5054954;28;20334;-71
2022/05/10 06:09:42;;;;;;;17.90;6.22;;;19.90;81.30;;;;;;5052752;28;20064;-74
2022/05/10 06:12:10;;;;;;;13.43;6.53;;;20.00;80.90;;;;;;5054581;28;20047;-76
2022/05/10 06:14:37;;;;;;;18.42;6.13;;;20.10;79.60;;;;;;5054197;28;20025;-71
2022/05/10 06:17:04;;;;;;;17.52;6.38;;;20.20;78.80;;;;;;5051857;28;20116;-74
2022/05/10 06:19:30;;;;;;;9.13;5.72;;;20.30;79.00;;;;;;5054334;28;20552;-74
2022/05/10 06:21:57;;;;;;;13.65;5.82;;;20.30;77.60;;;;;;5052771;28;20048;-74
2022/05/10 06:24:23;;;;;;;12.10;5.28;;;20.30;76.80;;;;;;5052430;28;20033;-74
2022/05/10 06:26:50;;;;;;;11.55;6.05;;;20.30;76.30;;;;;;5053885;28;20021;-74
2022/05/10 06:29:16;;;;;;;13.93;5.88;;;20.50;75.80;;;;;;5052704;28;20025;-73
2022/05/10 06:31:44;;;;;;;13.48;5.45;;;20.60;74.60;;;;;;5053703;28;20025;-74
2022/05/10 06:34:10;;;;;;;14.65;6.43;;;20.80;73.50;;;;;;5053593;28;20025;-74
2022/05/10 06:36:37;;;;;;;17.80;5.93;;;20.90;72.70;;;;;;5052245;28;20047;-73
2022/05/10 06:39:03;;;;;;;12.05;6.43;;;21.00;71.60;;;;;;5053480;28;20029;-74
2022/05/10 06:41:33;;;;;;;17.52;6.18;;;21.10;71.30;;;;;;5053854;28;20055;-73
2022/05/10 06:44:00;;;;;;;13.75;5.68;;;21.10;71.50;;;;;;5053564;28;20025;-77
2022/05/10 06:46:27;;;;;;;18.27;6.35;;;21.20;71.30;;;;;;5053449;28;20035;-75
2022/05/10 06:48:53;;;;;;;35.15;7.10;;;21.20;71.20;;;;;;5053706;28;20017;-75
2022/05/10 06:51:22;;;;;;;16.38;6.80;;;21.30;71.10;;;;;;5053632;28;20036;-74
2022/05/10 06:53:48;;;;;;;20.80;6.90;;;21.50;70.80;;;;;;5053293;28;20036;-75
2022/05/10 06:56:14;;;;;;;19.88;6.60;;;21.50;70.10;;;;;;5053474;28;20037;-73
2022/05/10 06:58:40;;;;;;;13.70;6.70;;;21.60;70.30;;;;;;5053465;28;20041;-74
2022/05/10 07:01:11;;;;;;;13.77;6.28;;;21.60;70.40;;;;;;5051912;28;20025;-73
2022/05/10 07:03:44;;;;;;;15.18;6.28;;;21.60;69.50;;;;;;5053261;28;20397;-74
2022/05/10 07:06:12;;;;;;;14.82;6.18;;;21.90;67.70;;;;;;5053116;28;20031;-72
2022/05/10 07:08:38;;;;;;;19.92;7.75;;;22.00;68.50;;;;;;5053587;28;20414;-75
2022/05/10 07:11:06;;;;;;;11.55;6.43;;;22.00;68.10;;;;;;5053450;28;20478;-79
2022/05/10 07:13:33;;;;;;;16.95;6.05;;;22.20;67.40;;;;;;5053253;28;20029;-74
2022/05/10 07:15:59;;;;;;;15.32;5.55;;;22.20;66.40;;;;;;5051924;28;20131;-73
2022/05/10 07:18:25;;;;;;;14.98;5.68;;;22.30;65.80;;;;;;5053167;28;20386;-74
2022/05/10 07:20:52;;;;;;;18.00;6.07;;;22.10;65.40;;;;;;5051906;28;20456;-75
2022/05/10 07:23:27;;;;;;;24.33;6.45;;;22.00;65.70;;;;;;5051695;28;20083;-74
2022/05/10 07:25:53;;;;;;;19.00;6.07;;;22.10;65.50;;;;;;5052606;28;20029;-74
2022/05/10 07:28:19;;;;;;;20.67;6.35;;;22.30;65.10;;;;;;5052607;28;20075;-75
2022/05/10 07:30:45;;;;;;;21.10;7.22;;;22.40;64.90;;;;;;5052913;28;20033;-73
2022/05/10 07:33:11;;;;;;;19.42;6.50;;;22.60;64.70;;;;;;5057385;28;20028;-75
2022/05/10 07:38:21;;;;;;;12.32;5.10;;;22.90;63.60;;;;;;5059176;28;20282;-75
2022/05/10 07:40:49;;;;;;;12.80;5.32;;;22.80;61.90;;;;;;5053210;28;20045;-75
2022/05/10 07:43:17;;;;;;;16.33;5.35;;;22.80;61.10;;;;;;5052677;28;20377;-76
2022/05/10 07:45:44;;;;;;;10.48;5.00;;;22.80;61.00;;;;;;5052284;28;20029;-75
2022/05/10 07:48:10;;;;;;;17.80;5.68;;;22.70;60.70;;;;;;5052474;28;20028;-73
2022/05/10 07:50:36;;;;;;;20.70;5.15;;;22.70;60.70;;;;;;5052377;28;20116;-74
2022/05/10 07:53:06;;;;;;;12.40;4.90;;;22.70;60.70;;;;;;5052306;28;20013;-75
2022/05/10 07:55:35;;;;;;;13.77;5.00;;;22.80;60.20;;;;;;5052447;28;20033;-76
2022/05/10 07:58:06;;;;;;;14.90;5.57;;;22.90;60.50;;;;;;5052420;28;20037;-75
2022/05/10 08:00:33;;;;;;;22.88;6.35;;;22.90;60.30;;;;;;5052451;28;20018;-75
2022/05/10 08:02:59;;;;;;;14.48;5.10;;;22.90;60.60;;;;;;5052750;28;20025;-78
2022/05/10 08:05:26;;;;;;;18.30;5.45;;;23.00;60.10;;;;;;5052336;28;20428;-76
2022/05/10 08:07:52;;;;;;;10.57;5.20;;;22.90;59.40;;;;;;5051181;28;20063;-75
2022/05/10 08:10:20;;;;;;;12.70;5.28;;;23.00;59.40;;;;;;5034621;28;20032;-74
2022/05/10 08:12:46;;;;;;;10.45;4.57;;;22.80;58.40;;;;;;5051081;28;20119;-76
2022/05/10 08:15:15;;;;;;;15.18;4.47;;;22.80;58.80;;;;;;5052145;28;20032;-74
2022/05/10 08:17:43;;;;;;;18.17;5.18;;;22.70;58.60;;;;;;5053097;28;20040;-75
2022/05/10 08:20:09;;;;;;;7.90;4.30;;;22.60;58.80;;;;;;5033869;28;20051;-77
2022/05/10 08:22:37;;;;;;;22.13;4.93;;;22.60;59.50;;;;;;5053422;28;20028;-75
2022/05/10 08:25:04;;;;;;;13.10;4.53;;;22.50;58.50;;;;;;5056428;28;20037;-75
2022/05/10 08:27:29;;;;;;;11.65;4.80;;;22.50;59.40;;;;;;5056110;28;20497;-73
2022/05/10 08:29:55;;;;;;;13.50;5.28;;;22.60;59.90;;;;;;5052312;28;20104;-74
2022/05/10 08:32:21;;;;;;;13.65;5.45;;;22.60;60.10;;;;;;5052417;28;20359;-74
2022/05/10 08:34:46;;;;;;;14.23;5.43;;;22.70;60.30;;;;;;5050831;28;20048;-73
2022/05/10 08:37:12;;;;;;;13.65;5.22;;;22.60;60.40;;;;;;5050532;28;20053;-73
2022/05/10 08:39:39;;;;;;;12.32;5.40;;;22.70;60.60;;;;;;5052096;28;20122;-72
2022/05/10 08:42:10;;;;;;;13.45;4.85;;;22.70;60.80;;;;;;5055405;28;20025;-74
2022/05/10 08:44:40;;;;;;;14.73;5.15;;;22.70;61.00;;;;;;5056247;28;20036;-72
2022/05/10 08:47:07;;;;;;;19.00;5.82;;;22.70;60.90;;;;;;5055861;28;20025;-71
2022/05/10 08:49:48;;;;;;;16.17;5.28;;;22.70;61.00;;;;;;5055933;28;20108;-72
2022/05/10 08:52:16;;;;;;;12.75;5.38;;;22.80;61.40;;;;;;5054157;28;20037;-77
2022/05/10 08:54:43;;;;;;;14.43;5.93;;;22.80;61.70;;;;;;5054160;28;20027;-73
2022/05/10 08:57:41;;;;;;;13.90;5.05;;;22.90;61.60;;;;;;5055514;28;20025;-75
2022/05/10 09:00:11;;;;;;;13.55;6.25;;;22.90;60.00;;;;;;5055034;28;20130;-74
2022/05/10 09:02:40;;;;;;;15.13;6.13;;;22.90;60.70;;;;;;5054310;28;20439;-75
2022/05/10 09:05:15;;;;;;;21.55;5.50;;;23.00;60.60;;;;;;5055499;28;20036;-75
2022/05/10 09:07:49;;;;;;;14.27;4.95;;;23.00;59.90;;;;;;5055537;28;20025;-76
2022/05/10 09:10:24;;;;;;;14.00;4.72;;;23.00;59.50;;;;;;5055439;28;20067;-74
2022/05/10 09:13:01;;;;;;;16.98;5.80;;;23.00;58.20;;;;;;5055298;28;20100;-74
2022/05/10 09:15:32;;;;;;;10.35;4.25;;;23.00;58.70;;;;;;5055278;28;20032;-74
2022/05/10 09:17:58;;;;;;;11.80;4.65;;;23.10;58.60;;;;;;5037337;28;20112;-74
2022/05/10 09:20:24;;;;;;;15.38;4.47;;;23.20;58.10;;;;;;5055222;28;20040;-76
2022/05/10 09:23:35;;;;;;;10.70;4.18;;;23.30;57.70;;;;;;5055153;28;20025;-74
2022/05/10 09:26:01;;;;;;;16.60;4.18;;;23.40;57.00;;;;;;5052689;28;20021;-76
2022/05/10 09:28:40;;;;;;;14.35;3.90;;;23.50;56.60;;;;;;5052783;28;20106;-76
2022/05/10 09:37:13;;;;;;;17.98;4.85;;;23.50;54.10;;;;;;5054778;28;20048;-76
2022/05/10 09:39:46;;;;;;;12.40;3.88;;;23.60;54.90;;;;;;5055101;28;20033;-75
2022/05/10 09:42:24;;;;;;;;;;;23.60;53.70;;;;;;5055363;28;20021;-75
2022/05/10 09:45:10;;;;;;;10.70;3.90;;;23.60;53.80;;;;;;5054722;28;20243;-74
2022/05/10 09:47:38;;;;;;;12.15;4.00;;;23.70;54.30;;;;;;5053173;28;20063;-75
2022/05/10 09:50:20;;;;;;;17.33;4.35;;;23.70;53.40;;;;;;5053472;28;20478;-74
2022/05/10 09:52:47;;;;;;;18.45;4.45;;;23.80;54.10;;;;;;5054510;28;20432;-73
2022/05/10 09:55:29;;;;;;;14.23;4.05;;;23.90;53.00;;;;;;5054414;28;20028;-75
2022/05/10 09:57:59;;;;;;;10.40;3.83;;;23.90;53.00;;;;;;5054705;28;20052;-76
2022/05/10 10:00:43;;;;;;;11.90;3.97;;;24.00;52.90;;;;;;5054431;28;20496;-75
2022/05/10 10:03:21;;;;;;;9.57;4.28;;;24.10;51.50;;;;;;5054674;28;20020;-71
2022/05/10 10:05:47;;;;;;;10.35;3.78;;;24.10;52.50;;;;;;5054317;28;20032;-70
2022/05/10 10:08:12;;;;;;;16.35;4.15;;;24.10;51.80;;;;;;5054155;28;20025;-74
2022/05/10 10:10:38;;;;;;;14.32;3.80;;;24.20;51.50;;;;;;5053062;28;20506;-73
2022/05/10 10:13:41;;;;;;;12.98;3.78;;;24.30;51.00;;;;;;5054159;28;20032;-73
2022/05/10 10:16:26;;;;;;;11.00;3.53;;;24.40;49.20;;;;;;5054197;28;20028;-72
2022/05/10 10:19:16;;;;;;;14.35;4.00;;;24.50;48.90;;;;;;5054231;28;20390;-74
2022/05/10 10:22:05;;;;;;;16.25;4.22;;;24.50;46.90;;;;;;5053029;28;20025;-73
2022/05/10 10:24:37;;;;;;;11.32;4.13;;;24.60;49.30;;;;;;5053774;28;20127;-74
2022/05/10 10:27:11;;;;;;;13.20;4.47;;;24.70;48.70;;;;;;5054233;28;20488;-73
2022/05/10 10:29:48;;;;;;;12.52;4.22;;;24.70;47.50;;;;;;5053835;28;20017;-75
2022/05/10 10:32:44;;;;;;;11.98;4.15;;;24.80;47.30;;;;;;5054030;28;20366;-78
2022/05/10 10:35:10;;;;;;;16.38;3.92;;;24.90;46.90;;;;;;5053614;28;20078;-74
2022/05/10 10:37:55;;;;;;;10.20;3.75;;;24.90;48.10;;;;;;5053625;28;20149;-76
2022/05/10 10:40:34;;;;;;;10.30;4.95;;;25.00;47.20;;;;;;5053716;28;20509;-77
2022/05/10 10:43:26;;;;;;;12.32;7.22;;;25.10;47.20;;;;;;5052879;28;20433;-77
2022/05/10 10:45:58;;;;;;;14.60;4.35;;;25.10;45.10;;;;;;5053853;28;20075;-75
2022/05/10 10:48:32;;;;;;;13.43;5.40;;;25.20;46.70;;;;;;5052523;28;20144;-75
2022/05/10 10:50:58;;;;;;;22.45;11.90;;;25.30;46.50;;;;;;5053137;28;20025;-74
2022/05/10 10:53:28;;;;;;;8.23;3.63;;;25.30;46.10;;;;;;5053438;28;20519;-74
2022/05/10 10:56:34;;;;;;;12.02;3.40;;;25.30;45.20;;;;;;5051793;28;20068;-74
2022/05/10 10:59:56;;;;;;;13.65;5.57;;;25.30;44.00;;;;;;5053244;28;20124;-75
2022/05/10 11:02:37;;;;;;;13.57;7.20;;;25.40;44.50;;;;;;5050967;28;20398;-75
2022/05/10 11:05:09;;;;;;;12.73;7.03;;;25.50;42.80;;;;;;5050319;28;20504;-75
2022/05/10 11:08:09;;;;;;;10.15;4.00;;;25.60;42.50;;;;;;5052297;28;20036;-77
2022/05/10 11:10:57;;;;;;;10.48;3.13;;;25.70;40.30;;;;;;5052959;28;20028;-75
2022/05/10 11:13:34;;;;;;;16.83;4.20;;;25.70;40.10;;;;;;5052942;28;20060;-75
2022/05/10 11:16:34;;;;;;;11.65;3.58;;;25.70;40.80;;;;;;5053281;28;20057;-76
2022/05/10 11:19:33;;;;;;;13.68;4.07;;;25.80;39.90;;;;;;5053016;28;20048;-75
2022/05/10 11:22:26;;;;;;;15.65;3.15;;;25.90;39.40;;;;;;5053023;28;20068;-74
2022/05/10 11:25:06;;;;;;;43.42;6.30;;;26.00;38.70;;;;;;5051899;28;20424;-74
2022/05/10 11:27:47;;;;;;;16.13;3.30;;;26.00;39.40;;;;;;5052971;28;20128;-75
2022/05/10 11:30:22;;;;;;;9.63;3.22;;;26.00;39.00;;;;;;5052959;28;20075;-74
2022/05/10 11:33:03;;;;;;;12.57;3.28;;;26.00;41.80;;;;;;5053145;28;20017;-78
2022/05/10 11:35:51;;;;;;;12.50;4.00;;;26.10;41.10;;;;;;5052995;28;20125;-75
2022/05/10 11:38:41;;;;;;;9.75;3.28;;;26.20;41.10;;;;;;5052977;28;20049;-76
2022/05/10 11:41:41;;;;;;;10.82;3.78;;;26.30;40.80;;;;;;5053424;28;20021;-76
2022/05/10 11:44:52;;;;;;;13.68;3.45;;;26.50;40.20;;;;;;5053411;28;20048;-75
2022/05/10 11:47:49;;;;;;;17.35;3.83;;;26.50;39.60;;;;;;5052922;28;20021;-77
2022/05/10 11:50:35;;;;;;;11.13;3.72;;;26.60;39.80;;;;;;5051855;28;20053;-77
2022/05/10 11:53:49;;;;;;;12.15;3.95;;;26.60;40.30;;;;;;5052837;28;20045;-74
2022/05/10 11:56:16;;;;;;;11.32;3.75;;;26.80;40.20;;;;;;5053047;28;20021;-79
2022/05/10 11:58:44;;;;;;;11.05;3.80;;;26.90;41.60;;;;;;5051621;28;20063;-74
2022/05/10 12:01:45;;;;;;;10.13;4.47;;;27.00;41.40;;;;;;5052843;28;20021;-75
2022/05/10 12:04:35;;;;;;;13.38;3.88;;;27.10;41.80;;;;;;5052716;28;20021;-75
2022/05/10 12:07:19;;;;;;;10.55;4.28;;;27.10;44.10;;;;;;5052685;28;20064;-74
2022/05/10 12:10:02;;;;;;;13.05;4.30;;;27.10;46.00;;;;;;5052483;28;20047;-76
2022/05/10 12:12:54;;;;;;;11.30;4.18;;;27.10;45.10;;;;;;5052402;28;20036;-75
2022/05/10 12:21:49;;;;;;;11.25;4.15;;;27.10;46.10;;;;;;5056747;28;20032;-75
2022/05/10 12:24:20;;;;;;;12.65;4.22;;;27.10;48.10;;;;;;5056176;28;20031;-75
2022/05/10 12:26:50;;;;;;;8.85;4.20;;;27.10;48.10;;;;;;5056771;28;20036;-76
2022/05/10 12:29:39;;;;;;;9.93;4.05;;;27.10;48.10;;;;;;5056209;28;20021;-77
2022/05/10 12:32:29;;;;;;;10.15;4.35;;;27.10;47.00;;;;;;5056169;28;20025;-75
2022/05/10 12:35:17;;;;;;;12.38;4.40;;;27.10;46.70;;;;;;5055815;28;20540;-74
2022/05/10 12:37:58;;;;;;;10.73;4.63;;;27.20;48.30;;;;;;5054419;28;20041;-73
2022/05/10 12:40:32;;;;;;;11.35;4.28;;;27.20;46.30;;;;;;5055946;28;20078;-76
2022/05/10 12:43:09;;;;;;;;;;;27.30;47.90;;;;;;5055057;28;20033;-76
2022/05/10 12:45:55;;;;;;;13.00;3.90;;;27.40;46.10;;;;;;5054469;28;20317;-73
2022/05/10 12:49:15;;;;;;;11.48;4.30;;;27.40;46.00;;;;;;5055981;28;20065;-74
2022/05/10 12:52:13;;;;;;;11.27;4.18;;;27.40;46.30;;;;;;5054058;28;20057;-74
2022/05/10 12:54:43;;;;;;;10.88;4.20;;;27.40;46.10;;;;;;5041639;28;20037;-74
2022/05/10 12:57:21;;;;;;;11.45;4.00;;;27.40;46.00;;;;;;5054589;28;20021;-72
2022/05/10 13:00:12;;;;;;;9.25;4.13;;;27.40;45.70;;;;;;5056033;28;20079;-74
2022/05/10 13:02:59;;;;;;;13.93;4.22;;;27.30;45.60;;;;;;5056113;28;20074;-75
2022/05/10 13:05:55;;;;;;;10.43;3.90;;;27.30;45.70;;;;;;5055763;28;20099;-73
2022/05/10 13:08:24;;;;;;;7.88;4.18;;;27.30;47.10;;;;;;5055579;28;20048;-74
2022/05/10 13:10:52;;;;;;;9.57;4.07;;;27.30;45.30;;;;;;5055415;28;20028;-72
2022/05/10 13:13:22;;;;;;;12.60;3.92;;;27.30;45.10;;;;;;5055567;28;20032;-73
2022/05/10 13:15:50;;;;;;;9.75;3.97;;;27.30;46.40;;;;;;5055881;28;20450;-72
2022/05/10 13:18:21;;;;;;;14.82;4.30;;;27.30;46.40;;;;;;5055283;28;20033;-74
2022/05/10 13:21:08;;;;;;;10.80;4.28;;;27.40;44.80;;;;;;5053891;28;20540;-76
2022/05/10 13:23:34;;;;;;;10.15;4.07;;;27.40;46.70;;;;;;5054125;28;20467;-76
2022/05/10 13:26:08;;;;;;;13.18;3.95;;;27.40;46.00;;;;;;5054748;28;20033;-76